Time;durP1;ratioP1;P1;durP2;ratioP2;P2;SDS_P1;SDS_P2;PMS_P1;PMS_P2;Temp;Humidity;BMP_temperature;BMP_pressure;BME280_temperature;BME280_humidity;BME280_pressure;Samples;Min_cycle;Max_cycle;Signal;HPM_P1;HPM_P2
2023/04/20 00:02:13;;;;;;;13.90;12.40;;;;;;;-143.84;86.65;44226.56;4973829;28;20442;-63
2023/04/20 00:04:42;;;;;;;17.00;11.80;;;;;;;-143.84;86.48;44327.47;4973391;28;20928;-63
2023/04/20 00:07:09;;;;;;;13.10;10.60;;;;;;;-143.84;86.82;44319.84;4972704;28;20446;-63
2023/04/20 00:09:37;;;;;;;14.90;10.17;;;;;;;-143.84;86.44;44382.69;4971596;28;20450;-63
2023/04/20 00:12:04;;;;;;;11.70;9.75;;;;;;;-143.84;86.31;44420.75;4971491;28;20488;-63
2023/04/20 00:14:31;;;;;;;12.30;11.00;;;;;;;-143.84;86.22;44514.03;4972410;28;20229;-63
2023/04/20 00:16:58;;;;;;;12.80;11.50;;;;;;;-143.84;85.89;44544.50;4972568;28;20704;-63
2023/04/20 00:19:27;;;;;;;14.47;12.10;;;;;;;-143.84;85.77;44592.09;4972416;28;20451;-63
2023/04/20 00:21:55;;;;;;;11.57;9.03;;;;;;;-143.84;86.34;44455.03;4973335;28;20441;-63
2023/04/20 00:24:22;;;;;;;14.23;10.27;;;;;;;-143.84;86.80;44314.13;4972937;28;21046;-63
2023/04/20 00:26:49;;;;;;;12.50;10.70;;;;;;;-143.84;86.87;44253.22;4973316;28;20469;-63
2023/04/20 00:29:17;;;;;;;13.63;9.70;;;;;;;-143.84;87.16;44209.44;4973707;28;20430;-63
2023/04/20 00:31:44;;;;;;;11.20;10.07;;;;;;;-143.84;86.94;44182.78;4973218;28;20449;-63
2023/04/20 00:34:11;;;;;;;11.33;9.40;;;;;;;-143.84;86.84;44247.50;4973412;28;20223;-63
2023/04/20 00:36:38;;;;;;;18.20;10.07;;;;;;;-143.84;86.94;44291.28;4973242;28;20972;-63
2023/04/20 00:39:06;;;;;;;11.00;9.90;;;;;;;-143.84;86.52;44342.69;4973198;28;20434;-63
2023/04/20 00:41:34;;;;;;;11.47;10.30;;;;;;;-143.84;86.51;44413.13;4972180;28;20454;-63
2023/04/20 00:44:01;;;;;;;11.37;9.03;;;;;;;-143.84;86.33;44426.47;4972804;28;20920;-63
2023/04/20 00:46:28;;;;;;;11.10;9.57;;;;;;;-143.84;86.45;44426.47;4972869;28;20501;-63
2023/04/20 00:48:56;;;;;;;11.03;9.80;;;;;;;-143.84;86.40;44416.94;4973137;28;20442;-63
2023/04/20 00:51:24;;;;;;;10.47;8.73;;;;;;;-143.84;86.15;44447.41;4972650;28;20497;-63
2023/04/20 00:53:51;;;;;;;10.63;8.40;;;;;;;-143.84;86.54;44378.88;4972375;28;20825;-63
2023/04/20 00:56:20;;;;;;;9.70;7.67;;;;;;;-143.84;86.48;44300.81;4972646;28;20783;-66
2023/04/20 00:58:47;;;;;;;12.10;9.10;;;;;;;-143.84;86.59;44289.41;4970921;28;20446;-66
2023/04/20 01:01:16;;;;;;;9.33;8.40;;;;;;;-143.84;86.88;44260.84;4970910;28;20868;-67
2023/04/20 01:03:43;;;;;;;10.13;8.13;;;;;;;-143.84;87.28;44159.94;4971135;28;20538;-67
2023/04/20 01:06:12;;;;;;;11.50;7.73;;;;;;;-143.84;87.52;44102.84;4970956;28;20536;-66
2023/04/20 01:08:46;;;;;;;8.93;7.87;;;;;;;-143.84;87.71;44078.09;4970738;28;20920;-65
2023/04/20 01:11:13;;;;;;;8.57;7.75;;;;;;;-143.84;87.74;44043.81;4970785;28;20468;-66
2023/04/20 01:13:43;;;;;;;9.90;8.47;;;;;;;-143.84;87.58;44059.03;4970906;28;20232;-66
2023/04/20 01:16:10;;;;;;;11.87;8.83;;;;;;;-143.84;87.41;44087.59;4970684;28;20469;-66
2023/04/20 01:18:46;;;;;;;12.32;8.60;;;;;;;-143.84;87.25;44091.41;4970532;28;20492;-66
2023/04/20 01:21:13;;;;;;;8.73;7.70;;;;;;;-143.84;87.59;44146.63;4970619;28;20197;-66
2023/04/20 01:23:42;;;;;;;8.90;8.03;;;;;;;-143.84;87.50;44171.38;4971058;28;20512;-66
2023/04/20 01:26:10;;;;;;;9.40;7.90;;;;;;;-143.84;87.18;44150.41;4970467;28;20445;-66
2023/04/20 01:28:38;;;;;;;14.60;8.13;;;;;;;-143.84;87.28;44158.03;4970347;28;20478;-66
2023/04/20 01:31:06;;;;;;;8.70;7.80;;;;;;;-143.84;86.71;44243.69;4970106;28;20300;-66
2023/04/20 01:33:33;;;;;;;8.30;7.37;;;;;;;-143.84;86.94;44285.59;4970163;28;20482;-66
2023/04/20 01:36:00;;;;;;;7.93;7.13;;;;;;;-143.84;86.38;44390.28;4970553;28;20432;-66
2023/04/20 01:38:30;;;;;;;8.63;7.80;;;;;;;-143.84;86.47;44416.94;4970485;28;20450;-66
2023/04/20 01:40:59;;;;;;;9.20;7.90;;;;;;;-143.84;86.25;44453.13;4970429;28;20460;-66
2023/04/20 01:43:26;;;;;;;9.52;8.00;;;;;;;-143.84;86.21;44495.00;4970468;28;20576;-66
2023/04/20 01:45:54;;;;;;;16.73;8.10;;;;;;;-143.84;86.37;44487.38;4970440;28;20694;-66
2023/04/20 01:48:21;;;;;;;14.00;7.50;;;;;;;-143.84;86.25;44460.72;4970067;28;20446;-66
2023/04/20 01:50:51;;;;;;;8.70;6.43;;;;;;;-143.84;87.05;44224.66;4970160;28;20508;-66
2023/04/20 01:53:18;;;;;;;10.43;7.50;;;;;;;-143.84;87.35;44198.00;4970163;28;20491;-66
2023/04/20 01:55:45;;;;;;;7.60;6.88;;;;;;;-143.84;87.67;44116.16;4970095;28;20499;-67
2023/04/20 01:58:14;;;;;;;6.90;6.20;;;;;;;-143.84;87.95;44051.44;4969949;28;20258;-67
2023/04/20 02:00:41;;;;;;;12.03;7.37;;;;;;;-143.84;87.85;44009.56;4969881;28;20874;-67
2023/04/20 02:03:08;;;;;;;7.70;7.00;;;;;;;-143.84;88.18;44038.09;4970044;28;20445;-67
2023/04/20 02:05:36;;;;;;;16.30;7.13;;;;;;;-143.84;87.99;44024.78;4970251;28;20785;-67
2023/04/20 02:08:03;;;;;;;6.28;5.78;;;;;;;-143.84;88.47;43988.63;4970092;28;20480;-67
2023/04/20 02:10:30;;;;;;;11.30;7.27;;;;;;;-143.84;88.33;44028.59;4970371;28;20697;-67
2023/04/20 02:12:57;;;;;;;7.30;6.57;;;;;;;-143.84;88.44;44015.25;4970394;28;20465;-66
2023/04/20 02:15:26;;;;;;;11.48;7.30;;;;;;;-143.84;88.47;43990.53;4969994;28;20437;-67
2023/04/20 02:17:53;;;;;;;8.70;6.63;;;;;;;-143.84;88.18;44001.94;4970029;28;20292;-67
2023/04/20 02:20:20;;;;;;;7.17;6.43;;;;;;;-143.84;87.99;44003.84;4969888;28;20489;-67
2023/04/20 02:22:47;;;;;;;11.97;7.40;;;;;;;-143.84;88.38;43965.78;4969662;28;20445;-67
2023/04/20 02:25:15;;;;;;;7.80;7.10;;;;;;;-143.84;88.25;43960.06;4969466;28;20444;-66
2023/04/20 02:27:42;;;;;;;9.17;8.07;;;;;;;-143.84;88.39;43984.81;4969723;28;20496;-66
2023/04/20 02:30:11;;;;;;;8.17;7.20;;;;;;;-143.84;88.18;44013.38;4969827;28;20441;-67
2023/04/20 02:32:40;;;;;;;9.45;7.22;;;;;;;-143.84;88.13;44026.69;4969959;28;21205;-67
2023/04/20 02:35:07;;;;;;;14.23;7.67;;;;;;;-143.84;87.59;44051.44;4970088;28;20214;-66
2023/04/20 02:37:34;;;;;;;8.70;7.30;;;;;;;-143.84;87.46;44072.38;4970114;28;20813;-66
2023/04/20 02:40:02;;;;;;;8.10;7.40;;;;;;;-143.84;87.56;44108.53;4970096;28;20449;-66
2023/04/20 02:42:29;;;;;;;12.20;8.20;;;;;;;-143.84;87.94;44053.34;4969931;28;20477;-66
2023/04/20 02:44:56;;;;;;;10.67;8.00;;;;;;;-143.84;87.89;44036.22;4973214;28;20586;-66
2023/04/20 02:47:23;;;;;;;12.63;7.57;;;;;;;-143.84;88.58;43944.84;4973365;28;21035;-66
2023/04/20 02:49:52;;;;;;;10.17;7.80;;;;;;;-143.84;88.50;43948.63;4973360;28;20448;-65
2023/04/20 02:52:19;;;;;;;9.97;8.33;;;;;;;-143.84;89.20;43916.28;4973401;28;20448;-65
2023/04/20 02:54:46;;;;;;;12.23;8.83;;;;;;;-143.84;89.67;43880.13;4973095;28;20485;-65
2023/04/20 02:57:13;;;;;;;12.73;8.27;;;;;;;-143.84;89.80;43857.28;4973435;28;20442;-65
2023/04/20 02:59:40;;;;;;;10.50;7.95;;;;;;;-143.84;89.67;43861.06;4973113;28;20492;-65
2023/04/20 03:02:08;;;;;;;11.27;7.10;;;;;;;-143.84;90.09;43862.97;4973200;28;20198;-65
2023/04/20 03:04:35;;;;;;;16.97;7.23;;;;;;;-143.84;90.32;43847.75;4972914;28;20450;-65
2023/04/20 03:07:04;;;;;;;8.50;7.30;;;;;;;-143.84;90.31;43862.97;4972815;28;20450;-65
2023/04/20 03:09:31;;;;;;;9.90;8.23;;;;;;;-143.84;90.56;43876.31;4972596;28;20461;-65
2023/04/20 03:11:58;;;;;;;11.90;7.83;;;;;;;-143.84;90.44;43851.56;4973228;28;20508;-65
2023/04/20 03:14:25;;;;;;;9.07;8.20;;;;;;;-143.84;90.70;43832.53;4972691;28;20480;-65
2023/04/20 03:16:53;;;;;;;9.80;8.80;;;;;;;-143.84;90.45;43834.44;4972563;28;20539;-65
2023/04/20 03:19:20;;;;;;;11.90;8.40;;;;;;;-143.84;90.38;43855.38;4972764;28;20501;-65
2023/04/20 03:21:47;;;;;;;9.10;8.17;;;;;;;-143.84;90.64;43857.28;4972685;28;20509;-65
2023/04/20 03:24:16;;;;;;;14.07;8.63;;;;;;;-143.84;91.04;43813.50;4972902;28;21429;-65
2023/04/20 03:26:43;;;;;;;10.40;8.33;;;;;;;-143.84;91.30;43878.22;4972885;28;20812;-65
2023/04/20 03:29:11;;;;;;;12.73;7.77;;;;;;;-143.84;91.57;43893.44;4972562;28;20963;-65
2023/04/20 03:31:38;;;;;;;10.67;8.53;;;;;;;-143.84;91.64;43866.78;4972713;28;20442;-65
2023/04/20 03:34:05;;;;;;;10.87;9.47;;;;;;;-143.84;91.77;43883.91;4972740;28;20532;-65
2023/04/20 03:36:32;;;;;;;17.33;9.17;;;;;;;-143.84;92.41;43902.97;4972545;28;20943;-64
2023/04/20 03:38:59;;;;;;;11.30;8.80;;;;;;;-143.84;92.20;43882.00;4972022;28;20438;-65
2023/04/20 03:41:28;;;;;;;9.20;8.30;;;;;;;-143.84;92.03;43893.44;4972224;28;20511;-65
2023/04/20 03:43:55;;;;;;;9.00;8.10;;;;;;;-143.84;91.78;43897.25;4971978;28;20449;-65
2023/04/20 03:46:22;;;;;;;13.77;8.27;;;;;;;-143.84;91.89;43887.72;4972337;28;20449;-65
2023/04/20 03:48:49;;;;;;;8.40;7.60;;;;;;;-143.84;91.23;43883.91;4972135;28;20437;-65
2023/04/20 03:51:16;;;;;;;9.23;8.33;;;;;;;-143.84;91.21;43823.00;4972119;28;21093;-65
2023/04/20 03:53:43;;;;;;;8.80;7.90;;;;;;;-143.84;90.82;43838.25;4971551;28;20488;-65
2023/04/20 03:56:11;;;;;;;12.70;8.38;;;;;;;-143.84;90.84;43861.06;4972203;28;20442;-65
2023/04/20 03:58:39;;;;;;;8.40;7.50;;;;;;;-143.84;90.81;43824.91;4972142;28;20268;-65
2023/04/20 04:01:08;;;;;;;8.33;7.60;;;;;;;-143.84;90.44;43832.53;4976952;28;20449;-65
2023/04/20 04:03:36;;;;;;;10.13;8.17;;;;;;;-143.84;89.61;43838.25;4982364;28;20892;-65
2023/04/20 04:06:03;;;;;;;10.03;8.93;;;;;;;-143.84;88.46;43895.34;4980533;28;20520;-65
2023/04/20 04:08:31;;;;;;;10.87;8.50;;;;;;;-143.84;87.44;44116.16;4980570;28;20453;-65
2023/04/20 04:10:58;;;;;;;9.80;8.80;;;;;;;-143.84;86.74;44228.47;4982233;28;20445;-65
2023/04/20 04:13:25;;;;;;;8.93;6.53;;;;;;;-143.84;85.40;44578.78;4976776;28;20477;-65
2023/04/20 04:15:53;;;;;;;10.37;8.43;;;;;;;-143.84;85.03;44654.94;4972178;28;20446;-65
2023/04/20 04:18:21;;;;;;;11.27;8.23;;;;;;;-143.84;85.32;44643.50;4971500;28;20478;-65
2023/04/20 04:20:48;;;;;;;10.80;8.50;;;;;;;-143.84;85.40;44609.22;4971662;28;20450;-65
2023/04/20 04:23:15;;;;;;;9.27;7.63;;;;;;;-143.84;84.34;44786.31;4971741;28;20870;-65
2023/04/20 04:25:42;;;;;;;7.50;6.90;;;;;;;-143.84;84.43;44793.91;4971550;28;20446;-64
2023/04/20 04:28:09;;;;;;;10.07;7.40;;;;;;;-143.84;84.64;44757.75;4972650;28;20707;-65
2023/04/20 04:30:36;;;;;;;14.70;7.73;;;;;;;-143.84;84.40;44780.59;4990371;28;20193;-64
2023/04/20 04:33:05;;;;;;;8.60;7.80;;;;;;;-143.84;84.44;44767.25;4985783;28;20445;-65
2023/04/20 04:35:33;;;;;;;14.90;7.73;;;;;;;-143.84;84.17;44767.25;4974217;28;20454;-65
2023/04/20 04:38:01;;;;;;;8.25;7.55;;;;;;;-143.84;83.74;44870.09;4970736;28;20452;-65
2023/04/20 04:40:28;;;;;;;10.80;8.20;;;;;;;-143.84;82.29;44978.63;4973628;28;20202;-65
2023/04/20 04:42:55;;;;;;;7.10;6.45;;;;;;;-143.84;82.11;45007.19;4990095;28;20440;-65
2023/04/20 04:45:25;;;;;;;7.50;6.50;;;;;;;-143.84;82.35;44972.91;4990509;28;20719;-65
2023/04/20 04:47:52;;;;;;;9.60;7.30;;;;;;;-143.84;82.15;44957.66;4990637;28;20929;-65
2023/04/20 04:50:21;;;;;;;7.90;7.10;;;;;;;-143.84;80.90;45037.66;4990630;28;20535;-65
2023/04/20 04:52:48;;;;;;;11.33;7.10;;;;;;;-143.84;80.48;45050.97;4990443;28;20445;-65
2023/04/20 04:55:16;;;;;;;8.70;6.07;;;;;;;-143.84;80.53;45047.16;4990548;28;20490;-66
2023/04/20 04:57:43;;;;;;;12.30;8.10;;;;;;;-143.84;81.69;45035.75;4990196;28;20441;-65
2023/04/20 05:00:11;;;;;;;8.93;8.03;;;;;;;-143.84;80.96;45049.06;4989885;28;20448;-66
2023/04/20 05:02:38;;;;;;;15.30;6.32;;;;;;;-143.84;80.25;45073.81;4990240;28;20549;-66
2023/04/20 05:05:07;;;;;;;8.40;7.53;;;;;;;-143.84;79.62;45049.06;4989787;28;20213;-66
2023/04/20 05:07:37;;;;;;;10.90;7.37;;;;;;;-143.84;79.67;45073.81;4990040;28;20495;-66
2023/04/20 05:10:04;;;;;;;9.77;8.37;;;;;;;-143.84;79.70;45075.72;4990096;28;20459;-66
2023/04/20 05:12:31;;;;;;;8.53;7.70;;;;;;;-143.84;79.42;45098.56;4990129;28;20503;-65
2023/04/20 05:14:59;;;;;;;11.60;10.30;;;;;;;-143.84;80.01;45070.00;4990156;28;20481;-65
2023/04/20 05:17:26;;;;;;;12.00;9.40;;;;;;;-143.84;80.53;45050.97;4989941;28;20497;-65
2023/04/20 05:19:53;;;;;;;16.37;8.63;;;;;;;-143.84;80.99;45018.59;4990066;28;20510;-65
2023/04/20 05:22:20;;;;;;;19.73;13.13;;;;;;;-143.84;81.55;45012.88;4990212;28;20477;-65
2023/04/20 05:24:49;;;;;;;17.13;14.23;;;;;;;-143.84;82.27;44984.31;4989777;28;20531;-65
2023/04/20 05:27:16;;;;;;;22.57;15.40;;;;;;;-143.84;82.24;44957.66;4990051;28;20329;-65
2023/04/20 05:29:43;;;;;;;19.27;15.43;;;;;;;-143.84;82.65;44932.91;4989955;28;20451;-65
2023/04/20 05:32:10;;;;;;;24.30;14.15;;;;;;;-143.84;83.02;44911.97;4990306;28;21322;-65
2023/04/20 05:34:37;;;;;;;21.23;12.02;;;;;;;-143.84;83.14;44885.31;4990335;28;20296;-65
2023/04/20 05:37:05;;;;;;;16.40;11.73;;;;;;;-143.84;83.05;44915.78;4989993;28;20204;-65
2023/04/20 05:39:32;;;;;;;14.53;12.10;;;;;;;-143.84;83.34;44868.19;4990051;28;20438;-65
2023/04/20 05:42:01;;;;;;;19.73;13.73;;;;;;;-143.84;83.95;44843.44;4990243;28;21002;-65
2023/04/20 05:44:28;;;;;;;15.70;11.77;;;;;;;-143.84;84.26;44744.41;4989700;28;20540;-65
2023/04/20 05:46:55;;;;;;;21.17;12.90;;;;;;;-143.84;84.79;44672.06;4989891;28;20446;-65
2023/04/20 05:49:22;;;;;;;15.53;11.53;;;;;;;-143.84;85.10;44571.16;4989682;28;20495;-65
2023/04/20 05:51:49;;;;;;;13.07;11.77;;;;;;;-143.84;85.40;44533.09;4989617;28;20440;-65
2023/04/20 05:54:16;;;;;;;13.60;11.70;;;;;;;-143.84;85.12;44565.44;4989225;28;20227;-65
2023/04/20 05:56:44;;;;;;;14.43;11.10;;;;;;;-143.84;85.08;44616.84;4989273;28;20956;-65
2023/04/20 05:59:12;;;;;;;14.53;11.73;;;;;;;-143.84;85.26;44565.44;4989460;28;20457;-65
2023/04/20 06:01:40;;;;;;;15.43;11.90;;;;;;;-143.84;85.51;44512.13;4989573;28;20471;-65
2023/04/20 06:04:07;;;;;;;22.90;11.70;;;;;;;-143.84;85.74;44424.56;4989560;28;20444;-65
2023/04/20 06:06:34;;;;;;;17.63;13.17;;;;;;;-143.84;85.77;44401.72;4989485;28;20458;-65
2023/04/20 06:09:02;;;;;;;19.73;12.83;;;;;;;-143.84;86.02;44283.69;4989335;28;20446;-65
2023/04/20 06:11:29;;;;;;;15.90;12.90;;;;;;;-143.84;86.37;44188.50;4989731;28;20532;-65
2023/04/20 06:13:56;;;;;;;16.23;12.97;;;;;;;-143.84;86.42;44224.66;4989547;28;20534;-65
2023/04/20 06:16:25;;;;;;;17.13;12.25;;;;;;;-143.84;86.49;44152.31;4989127;28;20453;-65
2023/04/20 06:18:52;;;;;;;23.13;11.43;;;;;;;-143.84;85.90;44297.00;4993416;28;20206;-65
2023/04/20 06:21:19;;;;;;;18.43;12.63;;;;;;;-143.84;85.94;44325.56;4992919;28;20245;-65
2023/04/20 06:23:46;;;;;;;16.63;12.87;;;;;;;-143.84;86.11;44289.41;4992988;28;21005;-65
2023/04/20 06:26:13;;;;;;;17.97;15.20;;;;;;;-143.84;86.28;44295.09;4993276;28;20920;-65
2023/04/20 06:28:41;;;;;;;19.93;13.97;;;;;;;-143.84;86.40;44230.38;4993482;28;20592;-65
2023/04/20 06:31:09;;;;;;;18.17;13.48;;;;;;;-143.84;86.57;44211.34;4993021;28;20436;-65
2023/04/20 06:33:37;;;;;;;19.00;14.33;;;;;;;-143.84;86.39;44247.50;4993110;28;20204;-65
2023/04/20 06:36:07;;;;;;;22.63;14.20;;;;;;;-143.84;86.26;44291.28;4993020;28;20499;-65
2023/04/20 06:38:34;;;;;;;19.30;14.03;;;;;;;-143.84;86.48;44203.72;4992949;28;20621;-65
2023/04/20 06:41:01;;;;;;;16.77;13.43;;;;;;;-143.84;86.74;44139.00;4993070;28;20456;-65
2023/04/20 06:43:29;;;;;;;16.33;11.90;;;;;;;-143.84;87.11;44091.41;4992908;28;20437;-65
2023/04/20 06:45:56;;;;;;;17.27;13.30;;;;;;;-143.84;87.22;44064.75;4992945;28;20442;-65
2023/04/20 06:48:23;;;;;;;14.33;12.80;;;;;;;-143.84;87.22;44040.00;4992618;28;20451;-65
2023/04/20 06:50:52;;;;;;;25.50;15.07;;;;;;;-143.84;87.22;44051.44;4992465;28;20780;-65
2023/04/20 06:53:19;;;;;;;20.23;13.40;;;;;;;-143.84;87.73;43992.41;4992755;28;20857;-65
2023/04/20 06:55:46;;;;;;;18.37;12.67;;;;;;;-143.84;87.94;43937.22;4992759;28;20558;-65
2023/04/20 06:58:13;;;;;;;16.63;12.67;;;;;;;-143.84;87.72;43933.41;4992915;28;20442;-65
2023/04/20 07:00:40;;;;;;;17.93;12.70;;;;;;;-143.84;87.39;44013.38;4992824;28;20440;-65
2023/04/20 07:03:07;;;;;;;12.40;10.70;;;;;;;-143.84;86.42;44207.53;4992800;28;20506;-65
2023/04/20 07:05:36;;;;;;;12.77;9.60;;;;;;;-143.84;86.10;44264.66;4992675;28;20443;-65
2023/04/20 07:08:05;;;;;;;15.17;9.90;;;;;;;-143.84;85.73;44384.59;4992505;28;21011;-65
2023/04/20 07:10:32;;;;;;;11.73;8.73;;;;;;;-143.84;85.57;44468.34;4992891;28;20529;-65
2023/04/20 07:12:59;;;;;;;9.67;8.53;;;;;;;-143.84;85.87;44376.97;4992550;28;20503;-65
2023/04/20 07:15:27;;;;;;;9.20;7.60;;;;;;;-143.84;84.29;44729.19;4992577;28;20482;-65
2023/04/20 07:17:54;;;;;;;7.83;7.03;;;;;;;-143.84;83.00;44925.31;4992414;28;20482;-65
2023/04/20 07:20:21;;;;;;;8.40;7.53;;;;;;;-143.84;83.09;44902.44;4992274;28;20450;-65
2023/04/20 07:22:48;;;;;;;7.57;6.87;;;;;;;-143.84;82.46;44963.38;4992211;28;20496;-65
2023/04/20 07:25:17;;;;;;;8.30;6.50;;;;;;;-143.84;82.84;44925.31;4992142;28;20479;-65
2023/04/20 07:27:44;;;;;;;7.73;7.03;;;;;;;-143.84;83.06;44856.75;4991958;28;20208;-65
2023/04/20 07:30:12;;;;;;;9.17;7.80;;;;;;;-143.84;83.88;44809.16;4991385;28;20994;-65
2023/04/20 07:32:40;;;;;;;12.90;7.50;;;;;;;-143.84;84.71;44702.53;4991854;28;20443;-65
2023/04/20 07:35:08;;;;;;;9.32;6.82;;;;;;;-143.84;83.31;44851.03;4991896;28;20587;-65
2023/04/20 07:37:35;;;;;;;7.87;5.90;;;;;;;-143.84;82.35;44971.00;4992106;28;20205;-65
2023/04/20 07:40:05;;;;;;;6.57;6.03;;;;;;;-143.84;82.13;44974.81;4991899;28;20510;-65
2023/04/20 07:42:35;;;;;;;7.63;6.82;;;;;;;-143.84;81.79;44984.31;4991685;28;20484;-65
2023/04/20 07:45:02;;;;;;;16.53;7.40;;;;;;;-143.84;81.55;44976.72;4991803;28;20213;-65
2023/04/20 07:47:29;;;;;;;14.13;9.77;;;;;;;-143.84;80.84;44995.75;4991768;28;20491;-65
2023/04/20 07:49:57;;;;;;;17.43;9.30;;;;;;;-143.84;81.31;45014.78;4991555;28;21059;-65
2023/04/20 07:52:24;;;;;;;10.35;8.90;;;;;;;-143.84;81.38;45003.38;4991430;28;20440;-65
2023/04/20 07:54:52;;;;;;;12.17;8.47;;;;;;;-143.84;80.62;45045.25;4991234;28;20235;-65
2023/04/20 07:57:19;;;;;;;12.73;9.23;;;;;;;-143.84;81.22;45020.50;4991302;28;20543;-65
2023/04/20 07:59:48;;;;;;;11.37;8.67;;;;;;;-143.84;80.05;45054.78;4991435;28;20200;-65
2023/04/20 08:02:16;;;;;;;9.00;7.43;;;;;;;-143.84;78.64;45108.09;4991338;28;20448;-65
2023/04/20 08:04:45;;;;;;;12.13;8.30;;;;;;;-143.84;77.27;45136.66;4991073;28;20823;-65
2023/04/20 08:07:13;;;;;;;9.53;8.67;;;;;;;-143.84;77.35;45119.53;4991235;28;20983;-65
2023/04/20 08:09:40;;;;;;;9.23;7.97;;;;;;;-143.84;77.46;45098.56;4991577;28;20434;-65
2023/04/20 08:12:07;;;;;;;10.40;8.13;;;;;;;-143.84;77.68;45089.06;4991357;28;21323;-65
2023/04/20 08:14:34;;;;;;;8.40;7.60;;;;;;;-143.84;77.00;45110.00;4991261;28;20552;-65
2023/04/20 08:17:03;;;;;;;8.93;8.13;;;;;;;-143.84;76.25;45121.44;4991118;28;21179;-65
2023/04/20 08:19:30;;;;;;;15.37;9.37;;;;;;;-143.84;75.75;45119.53;4991050;28;21011;-65
2023/04/20 08:21:57;;;;;;;13.67;9.13;;;;;;;-143.84;76.25;45100.47;4991133;28;20446;-65
2023/04/20 08:24:24;;;;;;;8.50;7.70;;;;;;;-143.84;75.18;45132.84;4991067;28;20443;-65
2023/04/20 08:26:51;;;;;;;11.07;8.53;;;;;;;-143.84;74.10;45121.44;4991045;28;20440;-65
2023/04/20 08:29:18;;;;;;;12.88;9.52;;;;;;;-143.84;73.78;45150.00;4991038;28;20443;-65
2023/04/20 08:31:45;;;;;;;10.70;8.43;;;;;;;-143.84;73.16;45121.44;4990963;28;20274;-65
2023/04/20 08:34:14;;;;;;;11.77;9.70;;;;;;;-143.84;73.62;45140.47;4990864;28;20456;-65
2023/04/20 08:36:41;;;;;;;15.17;10.37;;;;;;;-143.84;73.49;45140.47;4990717;28;20482;-65
2023/04/20 08:39:10;;;;;;;13.20;11.07;;;;;;;-143.84;73.79;45157.59;4990762;28;20444;-65
2023/04/20 08:41:37;;;;;;;11.67;10.47;;;;;;;-143.84;75.20;45132.84;4990834;28;20499;-65
2023/04/20 08:44:05;;;;;;;12.00;10.80;;;;;;;-143.84;74.65;45148.09;4990940;28;20503;-65
2023/04/20 08:46:33;;;;;;;11.23;10.03;;;;;;;-143.84;74.73;45121.44;4990610;28;20806;-65
2023/04/20 08:49:02;;;;;;;8.40;7.60;;;;;;;-143.84;72.40;45115.72;4990489;28;20858;-65
2023/04/20 08:51:31;;;;;;;7.67;6.70;;;;;;;-143.84;71.77;45121.44;4989579;28;20528;-65
2023/04/20 08:54:04;;;;;;;14.20;6.47;;;;;;;-143.84;71.66;45144.28;4989678;28;20439;-65
2023/04/20 08:56:35;;;;;;;7.82;7.00;;;;;;;-143.84;71.98;45121.44;4989816;28;20489;-65
2023/04/20 08:59:04;;;;;;;8.77;7.87;;;;;;;-143.84;72.02;45119.53;4989999;28;20208;-65
2023/04/20 09:01:32;;;;;;;11.50;8.33;;;;;;;-143.84;72.97;45136.66;4989711;28;20456;-65
2023/04/20 09:04:00;;;;;;;8.90;7.90;;;;;;;-143.84;73.45;45127.13;4989894;28;20444;-65
2023/04/20 09:06:27;;;;;;;9.10;7.97;;;;;;;-143.84;75.44;45111.91;4990342;28;20471;-65
2023/04/20 09:08:56;;;;;;;7.87;7.17;;;;;;;-143.84;73.12;45130.94;4990205;28;20479;-65
2023/04/20 09:11:24;;;;;;;7.47;6.70;;;;;;;-143.84;71.79;45127.13;4990161;28;20445;-65
2023/04/20 09:14:03;;;;;;;7.20;6.50;;;;;;;-143.84;71.34;45136.66;4990134;28;20491;-65
2023/04/20 09:16:31;;;;;;;7.67;6.73;;;;;;;-143.84;72.27;45111.91;4990127;28;20527;-65
2023/04/20 09:18:58;;;;;;;11.63;8.77;;;;;;;-143.84;72.23;45146.19;4990604;28;20453;-65
2023/04/20 09:21:28;;;;;;;9.47;8.67;;;;;;;-143.84;72.50;45125.22;4990361;28;20448;-65
2023/04/20 09:24:01;;;;;;;10.00;9.00;;;;;;;-143.84;73.13;45138.56;4990083;28;20480;-65
2023/04/20 09:26:31;;;;;;;10.98;9.98;;;;;;;-143.84;74.53;45138.56;4990038;28;20889;-65
2023/04/20 09:28:59;;;;;;;10.20;9.20;;;;;;;-143.84;74.75;45119.53;4990232;28;20232;-65
2023/04/20 09:31:26;;;;;;;8.60;7.90;;;;;;;-143.84;75.75;45132.84;4989733;28;20441;-65
2023/04/20 09:33:57;;;;;;;7.90;7.20;;;;;;;-143.84;77.67;45098.56;4990294;28;20449;-65
2023/04/20 09:36:24;;;;;;;5.43;4.93;;;;;;;-143.84;74.91;45092.88;4989802;28;20526;-65
2023/04/20 09:39:04;;;;;;;4.90;4.40;;;;;;;-143.84;74.49;45150.00;4989965;28;20490;-65
2023/04/20 09:41:33;;;;;;;5.00;4.30;;;;;;;-143.84;73.08;45127.13;4989988;28;20202;-65
2023/04/20 09:44:00;;;;;;;3.20;3.00;;;;;;;-143.84;71.20;45129.03;4989844;28;20546;-64
2023/04/20 09:46:31;;;;;;;3.87;3.57;;;;;;;-143.84;70.81;45132.84;4989633;28;20447;-64
2023/04/20 09:48:59;;;;;;;4.07;3.80;;;;;;;-143.84;71.20;45144.28;4989845;28;20478;-64
2023/04/20 09:51:30;;;;;;;3.53;3.33;;;;;;;-143.84;70.94;45119.53;4989214;28;20432;-66
2023/04/20 09:53:58;;;;;;;7.33;3.00;;;;;;;-143.84;71.69;45132.84;4990161;28;20445;-65
2023/04/20 09:56:28;;;;;;;3.10;2.43;;;;;;;-143.84;71.16;45121.44;4990073;28;21281;-66
2023/04/20 09:58:56;;;;;;;4.65;3.03;;;;;;;-143.84;71.01;45110.00;4989684;28;20791;-65
2023/04/20 10:01:24;;;;;;;4.20;3.00;;;;;;;-143.84;71.55;45136.66;4989466;28;20719;-65
2023/04/20 10:03:53;;;;;;;3.70;3.50;;;;;;;-143.84;72.01;45130.94;4989681;28;20436;-65
2023/04/20 10:06:26;;;;;;;4.27;3.80;;;;;;;-143.84;72.45;45125.22;4989494;28;20436;-65
2023/04/20 10:08:54;;;;;;;3.90;3.60;;;;;;;-143.84;72.28;45144.28;4989575;28;20453;-65
2023/04/20 10:11:28;;;;;;;4.40;4.00;;;;;;;-143.84;72.45;45148.09;4989546;28;21005;-65
2023/04/20 10:13:55;;;;;;;5.40;4.10;;;;;;;-143.84;72.75;45130.94;4989591;28;20450;-65
2023/04/20 10:16:22;;;;;;;4.33;3.93;;;;;;;-143.84;71.79;45146.19;4989304;28;20564;-65
2023/04/20 10:19:00;;;;;;;4.47;4.07;;;;;;;-143.84;72.21;45134.75;4989438;28;21438;-65
2023/04/20 10:21:28;;;;;;;3.13;2.92;;;;;;;-143.84;72.71;45159.50;4989420;28;20462;-65
2023/04/20 10:23:57;;;;;;;5.10;3.87;;;;;;;-143.84;72.62;45144.28;4989507;28;20245;-65
2023/04/20 10:26:35;;;;;;;5.00;4.53;;;;;;;-143.84;74.44;45129.03;4989231;28;20437;-65
2023/04/20 10:29:05;;;;;;;4.97;4.55;;;;;;;-143.84;75.71;45125.22;4989178;28;20533;-65
2023/04/20 10:31:42;;;;;;;4.80;4.50;;;;;;;-143.84;76.21;45119.53;4989216;28;20637;-65
2023/04/20 10:34:09;;;;;;;6.00;5.00;;;;;;;-143.84;76.07;45134.75;4989275;28;20950;-65
2023/04/20 10:36:38;;;;;;;5.00;4.70;;;;;;;-143.84;75.52;45130.94;4989075;28;20487;-65
2023/04/20 10:39:15;;;;;;;4.37;4.07;;;;;;;-143.84;75.89;45146.19;4989104;28;20455;-65
2023/04/20 10:41:53;;;;;;;4.87;4.40;;;;;;;-143.84;76.21;45144.28;4989288;28;20457;-65
2023/04/20 10:44:22;;;;;;;8.47;4.20;;;;;;;-143.84;76.31;45113.81;4989248;28;20445;-65
2023/04/20 10:46:50;;;;;;;4.53;4.13;;;;;;;-143.84;75.41;45136.66;4989650;28;20455;-65
2023/04/20 10:49:18;;;;;;;4.80;4.20;;;;;;;-143.84;75.58;45111.91;4989164;28;21323;-65
2023/04/20 10:51:49;;;;;;;4.43;3.90;;;;;;;-143.84;74.59;45113.81;4989081;28;20453;-65
2023/04/20 10:54:16;;;;;;;7.53;4.67;;;;;;;-143.84;74.50;45108.09;4988939;28;20527;-65
2023/04/20 10:56:45;;;;;;;5.10;4.70;;;;;;;-143.84;74.70;45085.25;4989311;28;20539;-65
2023/04/20 10:59:13;;;;;;;4.97;4.57;;;;;;;-143.84;74.84;45130.94;4988933;28;20437;-65
2023/04/20 11:01:42;;;;;;;5.80;5.20;;;;;;;-143.84;75.42;45110.00;4988693;28;20443;-65
2023/04/20 11:04:10;;;;;;;5.40;5.00;;;;;;;-143.84;75.29;45117.63;4989692;28;20523;-65
2023/04/20 11:06:38;;;;;;;6.67;5.93;;;;;;;-143.84;74.98;45140.47;4992375;28;20939;-65
2023/04/20 11:09:17;;;;;;;8.70;6.57;;;;;;;-143.84;75.05;45130.94;4992368;28;20441;-65
2023/04/20 11:11:44;;;;;;;7.03;6.43;;;;;;;-143.84;75.26;45123.34;4992396;28;21089;-65
2023/04/20 11:14:12;;;;;;;8.30;6.43;;;;;;;-143.84;75.32;45138.56;4992435;28;20449;-65
2023/04/20 11:16:51;;;;;;;7.05;6.35;;;;;;;-143.84;75.45;45146.19;4992297;28;21063;-65